Time;durP1;ratioP1;P1;durP2;ratioP2;P2;SDS_P1;SDS_P2;PMS_P1;PMS_P2;Temp;Humidity;BMP_temperature;BMP_pressure;BME280_temperature;BME280_humidity;BME280_pressure;Samples;Min_cycle;Max_cycle;Signal;HPM_P1;HPM_P2
2022/04/17 00:00:26;;;;;;;0.10;0.10;;;5.40;99.50;;;;;;5096520;28;20414;-83
2022/04/17 00:02:52;;;;;;;0.00;0.00;;;5.30;99.90;;;;;;5096458;28;20039;-82
2022/04/17 00:05:19;;;;;;;0.60;0.00;;;5.30;99.90;;;;;;5096306;28;20036;-82
2022/04/17 00:07:44;;;;;;;0.85;0.10;;;5.40;99.90;;;;;;5113079;28;20040;-83
2022/04/17 00:10:11;;;;;;;0.00;0.00;;;5.20;99.90;;;;;;5096097;28;20058;-82
2022/04/17 00:12:39;;;;;;;0.00;0.00;;;5.40;99.70;;;;;;5096481;28;20063;-83
2022/04/17 00:15:06;;;;;;;1.65;0.30;;;5.40;99.20;;;;;;5096357;28;20044;-82
2022/04/17 00:17:32;;;;;;;0.00;0.00;;;5.20;99.00;;;;;;5096311;28;20147;-82
2022/04/17 00:19:58;;;;;;;8.93;0.80;;;5.40;99.70;;;;;;5113026;28;20078;-82
2022/04/17 00:22:24;;;;;;;0.00;0.00;;;5.40;99.80;;;;;;5096234;28;20052;-82
2022/04/17 00:24:50;;;;;;;0.17;0.17;;;5.50;99.20;;;;;;5096206;28;20448;-82
2022/04/17 00:27:16;;;;;;;0.10;0.10;;;5.40;99.30;;;;;;5113514;28;20161;-82
2022/04/17 00:29:44;;;;;;;0.00;0.00;;;5.60;98.90;;;;;;5096214;28;20043;-82
2022/04/17 00:32:10;;;;;;;0.30;0.30;;;5.50;99.30;;;;;;5113047;28;20064;-83
2022/04/17 00:34:37;;;;;;;0.00;0.00;;;5.30;99.00;;;;;;5096212;28;20100;-83
2022/04/17 00:37:06;;;;;;;0.00;0.00;;;6.10;98.90;;;;;;5113706;28;20051;-82
2022/04/17 00:39:32;;;;;;;0.00;0.00;;;5.40;99.10;;;;;;5096289;28;20051;-82
2022/04/17 00:42:00;;;;;;;0.10;0.10;;;5.40;99.20;;;;;;5096139;28;20051;-82
2022/04/17 00:44:26;;;;;;;0.00;0.00;;;5.80;99.40;;;;;;5095695;28;20064;-82
2022/04/17 00:46:53;;;;;;;0.00;0.00;;;5.30;99.30;;;;;;5095808;28;20449;-82
2022/04/17 00:49:18;;;;;;;0.10;0.10;;;5.30;99.40;;;;;;5112752;28;20054;-82
2022/04/17 00:51:46;;;;;;;0.00;0.00;;;5.30;99.70;;;;;;5111198;28;20048;-81
2022/04/17 00:54:14;;;;;;;0.43;0.43;;;5.30;99.50;;;;;;5111136;28;20067;-82
2022/04/17 00:56:41;;;;;;;0.00;0.00;;;5.20;99.90;;;;;;5095814;28;20056;-82
2022/04/17 00:59:09;;;;;;;0.80;0.73;;;5.20;99.90;;;;;;5112556;28;20048;-83
2022/04/17 01:01:36;;;;;;;0.20;0.20;;;5.20;99.90;;;;;;5095801;28;20372;-82
2022/04/17 01:04:03;;;;;;;0.00;0.00;;;5.20;99.90;;;;;;5112795;28;20395;-82
2022/04/17 01:06:30;;;;;;;0.03;0.03;;;5.20;99.90;;;;;;5096366;28;20100;-82
2022/04/17 01:08:58;;;;;;;0.10;0.10;;;5.20;99.90;;;;;;5112934;28;20047;-82
2022/04/17 01:11:24;;;;;;;0.52;0.52;;;5.20;99.70;;;;;;5112546;28;20568;-82
2022/04/17 01:13:52;;;;;;;1.75;0.20;;;5.30;99.70;;;;;;5112444;28;20036;-82
2022/04/17 01:16:19;;;;;;;0.10;0.00;;;5.30;99.90;;;;;;5095818;28;20051;-82
2022/04/17 01:19:11;;;;;;;0.10;0.00;;;5.20;99.90;;;;;;5112734;28;20043;-82
2022/04/17 01:21:40;;;;;;;0.08;0.00;;;5.20;99.30;;;;;;5096514;28;20104;-83
2022/04/17 01:26:58;;;;;;;;;;;5.20;99.50;;;;;;5113385;28;20055;-82
2022/04/17 01:29:36;;;;;;;3.83;0.43;;;5.20;99.90;;;;;;5095767;28;20283;-82
2022/04/17 01:32:04;;;;;;;0.75;0.20;;;5.20;99.90;;;;;;5114777;28;20407;-82
2022/04/17 01:34:30;;;;;;;0.00;0.00;;;5.30;99.90;;;;;;5099492;28;20484;-83
2022/04/17 01:36:56;;;;;;;0.90;0.43;;;5.30;99.90;;;;;;5099357;28;20043;-82
2022/04/17 01:39:23;;;;;;;0.43;0.30;;;5.20;99.90;;;;;;5116410;28;20487;-82
2022/04/17 01:41:51;;;;;;;0.00;0.00;;;5.20;99.90;;;;;;5116893;28;20039;-82
2022/04/17 01:44:17;;;;;;;0.00;0.00;;;5.10;99.60;;;;;;5098413;28;20052;-82
2022/04/17 01:46:44;;;;;;;0.20;0.08;;;5.10;99.90;;;;;;5099383;28;20050;-82
2022/04/17 01:49:11;;;;;;;0.55;0.10;;;4.90;99.90;;;;;;5116293;28;20051;-83
2022/04/17 01:51:38;;;;;;;2.25;0.63;;;5.10;99.90;;;;;;5115820;28;20058;-82
2022/04/17 01:54:09;;;;;;;0.22;0.22;;;5.60;99.90;;;;;;5099116;28;20108;-83
2022/04/17 01:56:36;;;;;;;0.00;0.00;;;5.00;99.90;;;;;;5099170;28;20045;-82
2022/04/17 01:59:03;;;;;;;0.00;0.00;;;5.30;99.90;;;;;;5115938;28;20043;-83
2022/04/17 02:01:28;;;;;;;0.40;0.00;;;4.90;99.90;;;;;;5115961;28;20135;-82
2022/04/17 02:03:54;;;;;;;0.10;0.10;;;4.80;99.90;;;;;;5115788;28;20071;-82
2022/04/17 02:06:22;;;;;;;0.00;0.00;;;4.70;99.90;;;;;;5099040;28;20483;-82
2022/04/17 02:08:51;;;;;;;0.30;0.20;;;4.70;99.90;;;;;;5098638;28;20048;-82
2022/04/17 02:11:20;;;;;;;0.47;0.25;;;4.70;99.90;;;;;;5115572;28;20085;-82
2022/04/17 02:13:46;;;;;;;0.90;0.03;;;4.70;99.90;;;;;;5098702;28;20161;-83
2022/04/17 02:16:13;;;;;;;1.95;0.65;;;4.70;99.90;;;;;;5098726;28;20047;-82
2022/04/17 02:18:39;;;;;;;1.08;0.28;;;4.60;99.90;;;;;;5115557;28;20396;-82
2022/04/17 02:21:04;;;;;;;5.68;0.00;;;4.60;99.90;;;;;;5099209;28;20040;-82
2022/04/17 02:23:30;;;;;;;0.00;0.00;;;5.10;99.90;;;;;;5098652;28;20142;-82
2022/04/17 02:25:56;;;;;;;0.08;0.05;;;4.50;99.90;;;;;;5098061;28;20155;-82
2022/04/17 02:28:22;;;;;;;0.17;0.17;;;4.50;99.90;;;;;;5098364;28;20083;-83
2022/04/17 02:30:47;;;;;;;0.40;0.20;;;4.50;99.90;;;;;;5098502;28;20043;-82
2022/04/17 02:33:13;;;;;;;0.15;0.15;;;4.40;99.90;;;;;;5115331;28;20394;-82
2022/04/17 02:35:39;;;;;;;0.20;0.15;;;4.50;99.90;;;;;;5115271;28;20086;-82
2022/04/17 02:38:04;;;;;;;0.05;0.05;;;4.80;99.90;;;;;;5115430;28;20048;-82
2022/04/17 02:40:31;;;;;;;0.43;0.43;;;4.40;99.90;;;;;;5098212;28;20494;-82
2022/04/17 02:42:57;;;;;;;1.45;0.10;;;4.40;99.90;;;;;;5115048;28;20043;-82
2022/04/17 02:45:23;;;;;;;0.55;0.55;;;4.40;99.90;;;;;;5114729;28;20047;-82
2022/04/17 02:47:51;;;;;;;0.55;0.10;;;4.30;99.90;;;;;;5097715;28;20097;-83
2022/04/17 02:50:19;;;;;;;0.00;0.00;;;4.30;99.90;;;;;;5098024;28;20509;-82
2022/04/17 02:52:47;;;;;;;0.10;0.10;;;4.30;99.90;;;;;;5097515;28;20503;-83
2022/04/17 02:55:13;;;;;;;0.10;0.10;;;4.00;99.90;;;;;;5098162;28;20098;-82
2022/04/17 02:57:39;;;;;;;2.50;0.20;;;4.20;99.90;;;;;;5097594;28;20079;-82
2022/04/17 03:00:07;;;;;;;0.00;0.00;;;4.20;99.90;;;;;;5115371;28;20112;-82
2022/04/17 03:07:59;;;;;;;0.00;0.00;;;4.00;99.90;;;;;;5114702;28;20089;-82
2022/04/17 03:10:26;;;;;;;0.10;0.10;;;4.00;99.90;;;;;;5097625;28;20039;-83
2022/04/17 03:12:52;;;;;;;0.30;0.30;;;4.10;99.90;;;;;;5097538;28;20134;-82
2022/04/17 03:15:18;;;;;;;0.00;0.00;;;3.90;99.90;;;;;;5097755;28;20066;-83
2022/04/17 03:17:44;;;;;;;0.55;0.55;;;3.90;99.90;;;;;;5114206;28;20479;-83
2022/04/17 03:20:10;;;;;;;0.10;0.00;;;3.90;99.90;;;;;;5097631;28;20055;-82
2022/04/17 03:22:35;;;;;;;0.00;0.00;;;3.90;99.90;;;;;;5097607;28;20122;-82
2022/04/17 03:25:04;;;;;;;0.00;0.00;;;4.00;99.90;;;;;;5114154;28;20384;-82
2022/04/17 03:27:30;;;;;;;0.10;0.10;;;3.90;99.90;;;;;;5114502;28;20058;-83
2022/04/17 03:29:55;;;;;;;0.13;0.13;;;3.90;99.90;;;;;;5114073;28;20043;-82
2022/04/17 03:32:21;;;;;;;0.05;0.05;;;4.00;99.90;;;;;;5114210;28;20046;-82
2022/04/17 03:34:47;;;;;;;2.92;0.40;;;3.90;99.90;;;;;;5113788;28;20510;-82
2022/04/17 03:37:16;;;;;;;0.00;0.00;;;3.90;99.90;;;;;;5097006;28;20152;-83
2022/04/17 03:39:43;;;;;;;0.00;0.00;;;3.80;99.90;;;;;;5097058;28;20074;-83
2022/04/17 03:42:08;;;;;;;0.20;0.20;;;3.90;99.90;;;;;;5097186;28;20048;-82
2022/04/17 03:44:34;;;;;;;0.15;0.15;;;3.80;99.90;;;;;;5096146;28;20056;-82
2022/04/17 03:47:00;;;;;;;0.00;0.00;;;3.80;99.90;;;;;;5114021;28;20134;-83
2022/04/17 03:49:26;;;;;;;0.08;0.08;;;3.80;99.90;;;;;;5096857;28;20055;-82
2022/04/17 03:51:52;;;;;;;0.30;0.13;;;3.80;99.90;;;;;;5113161;28;20049;-83
2022/04/17 03:54:19;;;;;;;0.10;0.10;;;3.80;99.90;;;;;;5112995;28;20482;-83
2022/04/17 03:56:46;;;;;;;0.38;0.38;;;3.80;99.90;;;;;;5114463;28;20051;-83
2022/04/17 03:59:12;;;;;;;0.00;0.00;;;4.00;99.90;;;;;;5113530;28;20062;-82
2022/04/17 04:01:38;;;;;;;0.13;0.10;;;3.70;99.90;;;;;;5113242;28;20043;-82
2022/04/17 04:04:06;;;;;;;3.70;0.30;;;3.60;99.90;;;;;;5096520;28;20092;-83
2022/04/17 04:06:32;;;;;;;0.43;0.00;;;3.60;99.90;;;;;;5113588;28;20100;-83
2022/04/17 04:08:58;;;;;;;0.20;0.20;;;3.60;99.90;;;;;;5096516;28;20089;-82
2022/04/17 04:11:24;;;;;;;0.22;0.22;;;3.60;99.90;;;;;;5096407;28;20113;-83
2022/04/17 04:13:49;;;;;;;0.35;0.35;;;3.60;99.90;;;;;;5096757;28;20116;-83
2022/04/17 04:16:15;;;;;;;0.10;0.10;;;3.60;99.90;;;;;;5113284;28;20066;-83
2022/04/17 04:18:41;;;;;;;0.90;0.03;;;3.50;99.90;;;;;;5113003;28;20479;-83
2022/04/17 04:21:09;;;;;;;0.00;0.00;;;3.50;99.90;;;;;;5096581;28;20055;-83
2022/04/17 04:23:39;;;;;;;0.90;0.90;;;3.50;99.90;;;;;;5096192;28;20052;-83
2022/04/17 04:26:05;;;;;;;1.10;0.05;;;3.60;99.90;;;;;;5112762;28;20398;-82
2022/04/17 04:28:36;;;;;;;0.95;0.30;;;3.50;99.90;;;;;;5112941;28;20044;-83
2022/04/17 04:31:06;;;;;;;3.20;0.00;;;3.50;99.90;;;;;;5096493;28;20146;-82
2022/04/17 04:33:36;;;;;;;1.65;0.45;;;3.50;99.90;;;;;;5112922;28;20467;-83
2022/04/17 04:36:06;;;;;;;0.00;0.00;;;3.40;99.90;;;;;;5112812;28;20127;-83
2022/04/17 04:38:33;;;;;;;0.17;0.17;;;3.40;99.90;;;;;;5112909;28;20044;-83
2022/04/17 04:40:59;;;;;;;0.20;0.08;;;3.30;99.90;;;;;;5096297;28;20126;-82
2022/04/17 04:43:26;;;;;;;0.00;0.00;;;3.20;99.90;;;;;;5096396;28;20090;-83
2022/04/17 04:46:06;;;;;;;0.10;0.00;;;3.20;99.90;;;;;;5095479;28;20043;-82
2022/04/17 04:51:48;;;;;;;0.60;0.47;;;3.10;99.90;;;;;;5094925;28;20089;-82
2022/04/17 04:54:13;;;;;;;0.22;0.22;;;3.10;99.90;;;;;;5094721;28;20056;-82
2022/04/17 04:56:39;;;;;;;0.00;0.00;;;3.10;99.90;;;;;;5077847;28;20051;-83
2022/04/17 04:59:05;;;;;;;0.00;0.00;;;3.10;99.90;;;;;;5094815;28;20065;-82
2022/04/17 05:01:31;;;;;;;0.03;0.00;;;3.10;99.90;;;;;;5094984;28;20040;-82
2022/04/17 05:03:56;;;;;;;0.00;0.00;;;3.10;99.90;;;;;;5077427;28;20094;-82
2022/04/17 05:06:22;;;;;;;0.00;0.00;;;3.10;99.90;;;;;;5096350;28;20079;-83
2022/04/17 05:08:48;;;;;;;0.25;0.00;;;3.10;99.90;;;;;;5098604;28;20061;-82
2022/04/17 05:11:14;;;;;;;0.10;0.10;;;3.10;99.90;;;;;;5099004;28;20044;-83
2022/04/17 05:13:39;;;;;;;0.15;0.10;;;3.10;99.90;;;;;;5081768;28;20051;-83
2022/04/17 05:16:05;;;;;;;0.00;0.00;;;3.20;99.90;;;;;;5081484;28;20083;-83
2022/04/17 05:18:31;;;;;;;0.03;0.03;;;3.20;99.90;;;;;;5081122;28;20113;-83
2022/04/17 05:20:57;;;;;;;0.00;0.00;;;3.30;99.90;;;;;;5098799;28;20055;-83
2022/04/17 05:23:27;;;;;;;0.90;0.43;;;3.30;99.90;;;;;;5096641;28;20391;-83
2022/04/17 05:26:03;;;;;;;0.55;0.10;;;3.40;99.90;;;;;;5116333;28;20054;-83
2022/04/17 05:28:30;;;;;;;0.15;0.15;;;3.50;99.90;;;;;;5116648;28;20506;-83
2022/04/17 05:30:58;;;;;;;1.02;0.47;;;3.60;99.90;;;;;;5115880;28;20499;-83
2022/04/17 05:33:24;;;;;;;1.92;1.02;;;3.70;99.90;;;;;;5099887;28;20048;-83
2022/04/17 05:35:51;;;;;;;0.25;0.25;;;3.80;99.90;;;;;;5099552;28;20051;-83
2022/04/17 05:38:17;;;;;;;0.30;0.30;;;4.00;99.90;;;;;;5099327;28;20067;-83
2022/04/17 05:40:49;;;;;;;0.00;0.00;;;4.10;99.90;;;;;;5099178;28;20065;-83
2022/04/17 05:43:17;;;;;;;0.00;0.00;;;4.30;99.90;;;;;;5117030;28;20043;-83
2022/04/17 05:45:42;;;;;;;0.10;0.10;;;4.30;99.90;;;;;;5115456;28;20043;-83
2022/04/17 05:48:09;;;;;;;0.10;0.10;;;4.40;99.90;;;;;;5099646;28;20051;-83
2022/04/17 05:50:36;;;;;;;0.32;0.32;;;4.50;99.90;;;;;;5099405;28;20052;-83
2022/04/17 05:53:02;;;;;;;0.00;0.00;;;4.60;99.90;;;;;;5116139;28;20042;-83
2022/04/17 05:55:28;;;;;;;0.10;0.10;;;4.60;99.90;;;;;;5115709;28;20047;-82
2022/04/17 05:57:54;;;;;;;1.17;0.38;;;4.70;99.90;;;;;;5099179;28;20451;-82
2022/04/17 06:00:20;;;;;;;0.45;0.45;;;4.80;99.90;;;;;;5099124;28;20094;-83
2022/04/17 06:02:48;;;;;;;0.10;0.10;;;4.90;99.90;;;;;;5099282;28;20060;-83
2022/04/17 06:05:16;;;;;;;0.00;0.00;;;5.00;99.90;;;;;;5115646;28;20044;-83
2022/04/17 06:07:42;;;;;;;0.00;0.00;;;5.30;99.90;;;;;;5098784;28;20101;-83
2022/04/17 06:10:10;;;;;;;0.57;0.43;;;5.60;99.90;;;;;;5115805;28;20506;-83
2022/04/17 06:12:36;;;;;;;0.25;0.13;;;5.90;99.90;;;;;;5115546;28;20130;-83
2022/04/17 06:15:02;;;;;;;0.30;0.10;;;6.20;99.90;;;;;;5099141;28;20051;-82
2022/04/17 06:17:38;;;;;;;0.00;0.00;;;6.30;99.90;;;;;;5115083;28;20051;-83
2022/04/17 06:20:08;;;;;;;3.10;0.00;;;6.50;99.90;;;;;;5115694;28;20048;-83
2022/04/17 06:22:37;;;;;;;0.00;0.00;;;6.50;99.90;;;;;;5099087;28;20052;-82
2022/04/17 06:25:05;;;;;;;0.10;0.10;;;6.80;99.90;;;;;;5115334;28;20042;-83
2022/04/17 06:27:45;;;;;;;0.28;0.28;;;7.30;99.90;;;;;;5115872;28;20051;-83
2022/04/17 06:30:11;;;;;;;0.00;0.00;;;7.70;99.90;;;;;;5115067;28;20043;-83
2022/04/17 06:32:40;;;;;;;1.27;0.40;;;7.80;99.90;;;;;;5115377;28;20047;-82
2022/04/17 06:35:08;;;;;;;0.10;0.10;;;7.90;99.90;;;;;;5097756;28;20044;-83
2022/04/17 06:37:46;;;;;;;1.75;0.08;;;8.10;99.30;;;;;;5115318;28;20044;-83
2022/04/17 06:40:18;;;;;;;0.00;0.00;;;8.40;99.90;;;;;;5098296;28;20156;-83
2022/04/17 06:42:45;;;;;;;0.40;0.10;;;9.00;99.40;;;;;;5115337;28;20043;-83
2022/04/17 06:45:11;;;;;;;0.20;0.17;;;9.40;96.50;;;;;;5114326;28;20058;-83
2022/04/17 06:47:37;;;;;;;0.10;0.10;;;9.80;95.30;;;;;;5115057;28;20044;-83
2022/04/17 06:50:03;;;;;;;0.28;0.10;;;10.50;96.00;;;;;;5098027;28;20441;-83
2022/04/17 06:52:29;;;;;;;0.40;0.38;;;11.50;92.60;;;;;;5098186;28;20058;-83
2022/04/17 06:54:54;;;;;;;0.73;0.73;;;12.50;90.00;;;;;;5098223;28;20454;-82
2022/04/17 06:57:27;;;;;;;1.98;0.80;;;13.30;83.60;;;;;;5115122;28;20522;-83
2022/04/17 06:59:53;;;;;;;0.20;0.20;;;13.90;75.20;;;;;;5114781;28;20059;-83
2022/04/17 07:02:18;;;;;;;0.00;0.00;;;14.60;70.90;;;;;;5097861;28;20062;-84
2022/04/17 07:04:44;;;;;;;0.10;0.10;;;15.40;71.80;;;;;;5097944;28;20055;-82
2022/04/17 07:07:09;;;;;;;0.10;0.00;;;15.60;66.80;;;;;;5097975;28;20101;-83
2022/04/17 07:09:35;;;;;;;0.15;0.00;;;16.00;67.60;;;;;;5114543;28;20376;-83
2022/04/17 07:12:01;;;;;;;4.28;0.57;;;16.40;64.80;;;;;;5114191;28;20418;-82
2022/04/17 07:14:26;;;;;;;7.00;0.60;;;16.50;62.00;;;;;;5097250;28;20044;-81
2022/04/17 07:16:52;;;;;;;0.08;0.08;;;16.10;61.40;;;;;;5097383;28;20402;-81
2022/04/17 07:19:18;;;;;;;0.38;0.30;;;15.80;61.50;;;;;;5114261;28;20046;-81
2022/04/17 07:21:43;;;;;;;0.00;0.00;;;15.80;62.50;;;;;;5114434;28;20048;-81
2022/04/17 07:24:09;;;;;;;0.08;0.00;;;16.20;63.20;;;;;;5097551;28;20059;-81
2022/04/17 07:26:35;;;;;;;0.35;0.35;;;16.50;60.50;;;;;;5097352;28;20043;-82
2022/04/17 07:29:02;;;;;;;0.00;0.00;;;16.60;59.50;;;;;;5113221;28;20403;-81
2022/04/17 07:31:28;;;;;;;0.10;0.05;;;17.30;60.40;;;;;;5097147;28;20050;-82
2022/04/17 07:33:53;;;;;;;0.63;0.60;;;17.60;57.40;;;;;;5113776;28;20039;-82
2022/04/17 07:36:20;;;;;;;0.65;0.10;;;17.30;58.50;;;;;;5090321;28;20400;-84
2022/04/17 07:38:46;;;;;;;0.00;0.00;;;17.70;57.70;;;;;;5113384;28;20498;-83
2022/04/17 07:41:12;;;;;;;0.10;0.00;;;17.40;56.80;;;;;;5112824;28;20170;-83
2022/04/17 07:43:38;;;;;;;0.70;0.63;;;17.10;58.70;;;;;;5112283;28;20071;-82
2022/04/17 07:46:06;;;;;;;0.10;0.10;;;17.10;58.30;;;;;;5112861;28;20399;-82
2022/04/17 07:48:32;;;;;;;0.00;0.00;;;16.70;56.70;;;;;;5113480;28;20054;-82
2022/04/17 07:50:57;;;;;;;0.00;0.00;;;16.70;58.00;;;;;;5097140;28;20051;-82
2022/04/17 07:53:23;;;;;;;0.20;0.20;;;16.50;58.70;;;;;;5096632;28;20559;-82
2022/04/17 07:55:50;;;;;;;0.00;0.00;;;16.60;58.60;;;;;;5096779;28;20096;-82
2022/04/17 07:58:31;;;;;;;2.92;0.82;;;16.20;57.10;;;;;;5113512;28;20469;-82
2022/04/17 08:00:57;;;;;;;1.65;0.30;;;16.00;57.30;;;;;;5113108;28;20475;-81
2022/04/17 08:05:53;;;;;;;0.05;0.05;;;15.60;58.80;;;;;;5113704;28;20043;-81
2022/04/17 08:08:19;;;;;;;0.13;0.13;;;15.60;57.70;;;;;;5096554;28;20395;-82
2022/04/17 08:10:46;;;;;;;0.10;0.10;;;15.40;58.10;;;;;;5113513;28;20091;-82
2022/04/17 08:13:12;;;;;;;0.22;0.22;;;15.30;59.30;;;;;;5114102;28;20048;-82
2022/04/17 08:15:37;;;;;;;0.00;0.00;;;15.60;59.10;;;;;;5113045;28;20068;-82
2022/04/17 08:18:03;;;;;;;0.20;0.20;;;15.50;59.50;;;;;;5113285;28;20100;-82
2022/04/17 08:20:29;;;;;;;0.22;0.22;;;15.40;57.30;;;;;;5113401;28;20517;-82
2022/04/17 08:22:55;;;;;;;0.00;0.00;;;15.20;58.00;;;;;;5096382;28;20040;-82
2022/04/17 08:25:20;;;;;;;0.00;0.00;;;15.10;58.20;;;;;;5096180;28;20062;-82
2022/04/17 08:27:48;;;;;;;0.10;0.00;;;15.00;58.30;;;;;;5113495;28;20097;-82
2022/04/17 08:30:18;;;;;;;0.05;0.05;;;14.90;60.20;;;;;;5113810;28;20032;-82
2022/04/17 08:32:44;;;;;;;0.10;0.10;;;14.70;59.30;;;;;;5113659;28;20043;-82
2022/04/17 08:35:10;;;;;;;0.00;0.00;;;14.70;59.10;;;;;;5096298;28;20471;-82
2022/04/17 08:37:35;;;;;;;0.15;0.10;;;14.80;60.30;;;;;;5095914;28;20043;-82
2022/04/17 08:40:03;;;;;;;0.30;0.22;;;14.90;59.10;;;;;;5113673;28;20096;-83
2022/04/17 08:42:30;;;;;;;0.55;0.30;;;14.70;58.30;;;;;;5096116;28;20055;-83
2022/04/17 08:44:56;;;;;;;0.10;0.10;;;14.60;57.80;;;;;;5095611;28;20163;-83
2022/04/17 08:47:22;;;;;;;1.25;0.25;;;14.70;60.00;;;;;;5113079;28;20060;-82
2022/04/17 08:49:50;;;;;;;0.22;0.22;;;14.70;57.90;;;;;;5112906;28;20175;-83
2022/04/17 08:52:17;;;;;;;0.10;0.10;;;14.80;58.30;;;;;;5112923;28;20055;-82
2022/04/17 08:54:43;;;;;;;0.00;0.00;;;15.10;58.40;;;;;;5113252;28;20126;-83
2022/04/17 08:57:10;;;;;;;0.00;0.00;;;15.30;59.00;;;;;;5095900;28;20051;-82
2022/04/17 08:59:36;;;;;;;0.00;0.00;;;15.60;56.80;;;;;;5096048;28;20052;-83
2022/04/17 09:02:10;;;;;;;0.70;0.30;;;15.50;56.10;;;;;;5113176;28;20043;-83
2022/04/17 09:04:37;;;;;;;1.05;0.47;;;15.30;56.90;;;;;;5112768;28;20070;-83
2022/04/17 09:07:06;;;;;;;0.43;0.43;;;15.20;55.00;;;;;;5113123;28;20043;-83
2022/04/17 09:09:32;;;;;;;0.40;0.40;;;15.40;55.90;;;;;;5112811;28;20052;-83
2022/04/17 09:11:58;;;;;;;0.15;0.15;;;15.40;55.40;;;;;;5095571;28;20260;-83
2022/04/17 09:14:24;;;;;;;0.00;0.00;;;15.50;55.80;;;;;;5096090;28;20048;-83
2022/04/17 09:16:50;;;;;;;0.45;0.17;;;15.50;56.90;;;;;;5112649;28;20040;-83
2022/04/17 09:19:17;;;;;;;0.08;0.00;;;15.80;57.10;;;;;;5112736;28;20086;-83
2022/04/17 09:21:43;;;;;;;0.20;0.20;;;16.10;56.20;;;;;;5112433;28;20083;-83
2022/04/17 09:24:24;;;;;;;0.00;0.00;;;16.10;54.60;;;;;;5112656;28;20387;-83
2022/04/17 09:26:59;;;;;;;0.10;0.10;;;16.50;55.80;;;;;;5095763;28;20066;-83
2022/04/17 09:29:29;;;;;;;0.10;0.00;;;16.50;55.30;;;;;;5112935;28;20031;-83
2022/04/17 09:32:06;;;;;;;2.35;0.40;;;16.40;55.70;;;;;;5095477;28;20097;-83
2022/04/17 09:34:52;;;;;;;0.52;0.28;;;16.50;55.00;;;;;;5113319;28;20049;-83
2022/04/17 09:37:20;;;;;;;0.25;0.10;;;16.60;54.60;;;;;;5112727;28;20498;-83
2022/04/17 09:39:47;;;;;;;0.30;0.30;;;16.50;54.50;;;;;;5112331;28;20644;-83
2022/04/17 09:42:19;;;;;;;0.20;0.20;;;16.60;54.20;;;;;;5095220;28;20491;-83
2022/04/17 09:44:46;;;;;;;0.08;0.08;;;16.60;54.50;;;;;;5095059;28;20058;-83
2022/04/17 09:47:23;;;;;;;0.00;0.00;;;16.50;53.40;;;;;;5095773;28;20499;-83
2022/04/17 09:49:59;;;;;;;0.03;0.00;;;16.40;52.70;;;;;;5112176;28;20061;-83
2022/04/17 09:52:45;;;;;;;0.00;0.00;;;16.50;54.80;;;;;;5096737;28;20048;-83
2022/04/17 09:55:11;;;;;;;0.55;0.30;;;16.80;55.50;;;;;;5099104;28;20047;-83
2022/04/17 09:57:40;;;;;;;0.60;0.17;;;16.80;54.40;;;;;;5116244;28;20043;-83
2022/04/17 10:00:18;;;;;;;0.35;0.35;;;16.80;53.50;;;;;;5116004;28;20059;-83
2022/04/17 10:02:48;;;;;;;0.10;0.10;;;16.80;54.70;;;;;;5115885;28;20079;-83
2022/04/17 10:05:22;;;;;;;1.65;0.52;;;17.20;54.30;;;;;;5115596;28;20039;-83
2022/04/17 10:07:49;;;;;;;0.00;0.00;;;17.30;53.50;;;;;;5099204;28;20051;-83
2022/04/17 10:10:16;;;;;;;0.43;0.43;;;17.70;52.40;;;;;;5115838;28;20521;-83
2022/04/17 10:12:46;;;;;;;0.80;0.30;;;17.90;52.30;;;;;;5098974;28;20043;-83
2022/04/17 10:15:13;;;;;;;0.20;0.20;;;18.10;52.00;;;;;;5115441;28;20075;-83
2022/04/17 10:17:41;;;;;;;0.00;0.00;;;18.30;53.70;;;;;;5098900;28;20070;-83
2022/04/17 10:20:09;;;;;;;0.00;0.00;;;18.50;54.00;;;;;;5116339;28;20514;-83
2022/04/17 10:22:37;;;;;;;0.20;0.20;;;18.50;50.90;;;;;;5115610;28;20483;-83
2022/04/17 10:25:05;;;;;;;0.20;0.10;;;18.40;51.20;;;;;;5115161;28;20050;-83
2022/04/17 10:27:36;;;;;;;0.00;0.00;;;18.20;48.40;;;;;;5098410;28;20138;-83
2022/04/17 10:30:04;;;;;;;1.38;0.10;;;18.20;49.90;;;;;;5098688;28;20435;-84
2022/04/17 10:32:35;;;;;;;0.17;0.17;;;18.30;48.70;;;;;;5115298;28;20486;-83
2022/04/17 10:35:26;;;;;;;0.00;0.00;;;18.20;51.10;;;;;;5115921;28;20134;-83
2022/04/17 10:38:10;;;;;;;1.45;0.75;;;18.30;50.10;;;;;;5115264;28;20100;-84
2022/04/17 10:40:37;;;;;;;0.00;0.00;;;18.60;49.60;;;;;;5114974;28;20647;-83
2022/04/17 10:43:05;;;;;;;0.00;0.00;;;18.90;48.30;;;;;;5114981;28;20043;-83
2022/04/17 10:45:33;;;;;;;0.75;0.10;;;19.20;51.00;;;;;;5097325;28;20138;-83
2022/04/17 10:48:07;;;;;;;0.00;0.00;;;19.50;49.60;;;;;;5115048;28;20055;-83
2022/04/17 10:50:48;;;;;;;0.05;0.05;;;19.40;47.80;;;;;;5097825;28;20083;-83
2022/04/17 10:53:27;;;;;;;0.10;0.10;;;19.60;48.30;;;;;;5097991;28;20088;-83
2022/04/17 10:56:08;;;;;;;0.10;0.10;;;19.20;47.30;;;;;;5114923;28;20407;-84
2022/04/17 10:58:35;;;;;;;0.10;0.03;;;18.90;45.70;;;;;;5114676;28;20043;-84
2022/04/17 11:01:01;;;;;;;0.05;0.00;;;19.00;46.90;;;;;;5097769;28;20048;-83
2022/04/17 11:03:27;;;;;;;10.65;1.10;;;19.00;46.40;;;;;;5097905;28;20147;-83
2022/04/17 11:06:12;;;;;;;1.65;0.93;;;19.00;46.70;;;;;;5115131;28;20105;-83
2022/04/17 11:08:58;;;;;;;0.00;0.00;;;19.10;47.40;;;;;;5097708;28;20549;-83
2022/04/17 11:11:35;;;;;;;0.05;0.05;;;19.10;47.40;;;;;;5097602;28;20047;-83
2022/04/17 11:14:28;;;;;;;0.10;0.10;;;19.10;46.70;;;;;;5114569;28;20108;-83
2022/04/17 11:16:57;;;;;;;0.10;0.00;;;19.10;47.90;;;;;;5114297;28;20574;-83
2022/04/17 11:19:24;;;;;;;0.43;0.10;;;19.00;46.60;;;;;;5114507;28;20035;-83
2022/04/17 11:21:51;;;;;;;0.10;0.00;;;19.40;49.40;;;;;;5114266;28;20138;-83
2022/04/17 11:24:19;;;;;;;0.45;0.28;;;19.40;46.10;;;;;;5097074;28;20585;-83
2022/04/17 11:26:53;;;;;;;0.10;0.10;;;19.30;44.40;;;;;;5097267;28;20563;-83
2022/04/17 11:29:43;;;;;;;0.00;0.00;;;19.30;45.60;;;;;;5114181;28;20044;-83
2022/04/17 11:32:18;;;;;;;0.00;0.00;;;19.40;47.00;;;;;;5114245;28;20061;-83
2022/04/17 11:34:53;;;;;;;0.00;0.00;;;19.50;46.00;;;;;;5114120;28;20048;-83
2022/04/17 11:37:26;;;;;;;0.08;0.00;;;19.50;46.50;;;;;;5113923;28;20049;-83
2022/04/17 11:39:57;;;;;;;0.10;0.10;;;19.60;45.80;;;;;;5097627;28;20051;-83
2022/04/17 11:42:28;;;;;;;0.10;0.10;;;19.50;42.80;;;;;;5097514;28;20047;-83
2022/04/17 11:44:58;;;;;;;0.00;0.00;;;19.30;42.70;;;;;;5096506;28;20051;-83
2022/04/17 11:47:25;;;;;;;0.08;0.00;;;19.30;42.40;;;;;;5096950;28;20368;-83
2022/04/17 11:49:51;;;;;;;0.10;0.10;;;19.40;43.00;;;;;;5097332;28;20051;-83
2022/04/17 11:52:21;;;;;;;0.00;0.00;;;19.40;43.30;;;;;;5113837;28;20047;-83
2022/04/17 11:54:48;;;;;;;0.00;0.00;;;19.40;43.70;;;;;;5114356;28;20078;-83
2022/04/17 11:57:18;;;;;;;0.80;0.32;;;19.30;42.00;;;;;;5113605;28;20043;-84
2022/04/17 11:59:51;;;;;;;0.10;0.00;;;19.40;43.30;;;;;;5113261;28;20600;-84
2022/04/17 12:02:21;;;;;;;0.10;0.10;;;19.50;42.70;;;;;;5096951;28;20050;-84
2022/04/17 12:05:04;;;;;;;0.00;0.00;;;19.60;43.30;;;;;;5096780;28;20044;-84
2022/04/17 12:07:30;;;;;;;0.20;0.20;;;19.70;41.80;;;;;;5096739;28;20372;-84
2022/04/17 12:10:22;;;;;;;1.85;0.47;;;19.70;43.90;;;;;;5113529;28;20050;-84
2022/04/17 12:12:48;;;;;;;0.38;0.03;;;19.60;42.40;;;;;;5110771;28;20058;-84
2022/04/17 12:15:15;;;;;;;0.47;0.10;;;19.80;43.20;;;;;;5112908;28;20047;-84
2022/04/17 12:17:41;;;;;;;0.00;0.00;;;19.70;41.20;;;;;;5113454;28;20391;-84
2022/04/17 12:20:08;;;;;;;0.00;0.00;;;19.80;42.10;;;;;;5096691;28;20048;-84
2022/04/17 12:22:37;;;;;;;0.00;0.00;;;20.10;41.80;;;;;;5096278;28;20077;-84
2022/04/17 12:25:04;;;;;;;0.00;0.00;;;20.00;42.00;;;;;;5113839;28;20483;-84
2022/04/17 12:27:31;;;;;;;0.08;0.00;;;20.10;43.00;;;;;;5113140;28;20044;-84
2022/04/17 12:29:57;;;;;;;0.17;0.10;;;20.10;41.10;;;;;;5113359;28;20054;-84
2022/04/17 12:32:24;;;;;;;0.08;0.08;;;20.30;42.20;;;;;;5113198;28;20071;-84
2022/04/17 12:35:01;;;;;;;0.10;0.03;;;20.30;40.10;;;;;;5113323;28;20134;-84
2022/04/17 12:37:35;;;;;;;0.70;0.28;;;20.20;40.40;;;;;;5096048;28;20044;-84
2022/04/17 12:40:13;;;;;;;0.10;0.00;;;20.20;42.70;;;;;;5113396;28;20104;-84
2022/04/17 12:42:40;;;;;;;0.00;0.00;;;20.40;41.20;;;;;;5096476;28;20128;-84
2022/04/17 12:45:10;;;;;;;0.10;0.00;;;20.20;39.80;;;;;;5112516;28;20052;-84
2022/04/17 12:47:36;;;;;;;0.05;0.00;;;20.10;40.40;;;;;;5095961;28;20483;-84
2022/04/17 12:50:11;;;;;;;0.57;0.20;;;20.00;40.20;;;;;;5112995;28;20044;-84
2022/04/17 12:52:37;;;;;;;0.20;0.20;;;20.10;42.50;;;;;;5113202;28;20056;-84
2022/04/17 12:55:10;;;;;;;0.10;0.00;;;20.10;41.90;;;;;;5112437;28;20466;-83
2022/04/17 12:57:37;;;;;;;0.20;0.00;;;20.10;42.00;;;;;;5113113;28;20047;-84
2022/04/17 13:00:14;;;;;;;0.00;0.00;;;20.20;41.50;;;;;;5112905;28;20048;-84
2022/04/17 13:02:41;;;;;;;0.50;0.10;;;20.30;42.10;;;;;;5112499;28;20079;-84
2022/04/17 13:05:07;;;;;;;0.00;0.00;;;20.50;41.70;;;;;;5112783;28;20380;-84
2022/04/17 13:07:34;;;;;;;0.00;0.00;;;20.70;41.90;;;;;;5113188;28;20119;-84
2022/04/17 13:10:03;;;;;;;1.75;0.00;;;20.80;39.50;;;;;;5112753;28;20044;-84
2022/04/17 13:12:50;;;;;;;0.52;0.30;;;20.70;40.00;;;;;;5112828;28;20040;-83